logo
Search for airport 
image banner adimage banner adimage banner ad
image banner ad

FAKE - Kei Mouth

Located in Keimouth, South Africa

ICAO - FAKE, IATA -

Data provided by Airmate  

General information

Coordinates: S32°41'51" E28°21'22"
Elevation is 269 feet MSL.
 
View others Airports in Eastern Cape

Operational data

Special qualification required
Current time UTC:
Current local time:
Weather at : FAEL - King Phalo ( 62 km )
METAR: FAEL 220800Z 24003KT 200V290 9999 BKN033 22/18 Q1024
TAF: TAF FAEL 220600Z 2207/2218 VRB03KT 9999 FEW010 BKN025 TX25/2210Z TN17/2218Z PROB30 TEMPO 2207/2209 BKN010 BECMG 2212/2214 SCT025
View NOTAMs / SUP AIP / TFR affecting this airport [VIEW]
Communications frequencies: [VIEW]

Runways:

RWY identifierQFULength (ft)Width (ft)SurfaceLDA (ft)
0714°196966GRASS
25194°196966GRASS

Airport contact information

Address: Keimouth South Africa

Satellite view of FAKE